Port Griffith, Pennsylvania
Current Conditions -  °F | °C
As of 1:54 PM on Monday 22 Dec 2014 (Local Time) from KAVP Reporting Station
Scattered Clouds Scattered Clouds  
Wind Chill: 34°   Ceiling: Unl
Heat Index: 40°   Visibility: 10mi
Dew Point: 28°   Wind: 9mph
Humidity: 63%   Direction: 160°SSE
Pressure: 30.17"   Gusts: NA
Location:  41.2973°N, 75.7399°W
Report Text: KAVP 221854Z AUTO 16008KT 120V200 10SM SCT024 04/M02 A3017 RMK AO2 SLP225 T00441022
Loading
Personal Weather Stations






























Interactive Weather Map New forecast layout! Learn more

10-Day Weather Forecast

Advertisements
Track Severe Weather on mobile